Terminal Aerodrome Forecast
Issued by NWS

Home | Current Version | Previous Version | Text Only | Print | Product List | Glossary On
Versions: 1 2 3 4 5 6 7 8 9 10 11 12 13 14 15 16 17
000
FTUS43 KPAH 250520
TAFMVN
TAF
KMVN 250520Z 2506/2606 VRB04KT P6SM VCSH FEW050 BKN100
     FM250800 VRB04KT P6SM FEW050 SCT200
     FM251600 18008KT P6SM SCT035 BKN200
     FM251900 18008KT P6SM VCTS SCT040CB BKN200
     FM260000 14006KT P6SM SCT040 BKN200=

USA.gov is the U.S. government's official web portal to all federal, state and local government web resources and services.